Shinpuku Maru — JL6543 — position and weather

sailwx.info

Track history (hours):
 
Tides and Currents Weather Stations Pressure Air Temp Water Temp Dewpoint Dewpoint Depression Visibility Wind Speed Wind Dir Waves Ship Positions

Shinpuku Maru

Last reported at 2018-Feb-22 15:13 UTC. Time now 2018-Feb-22 18:39 UTC.
Position N 34°33' E 138°14'.

Length 79 m; draft 5.3 m.

Type: Cargo ship. MMSI: 431500572.

Date/timePositionNaut miles runAvg speedWind from/ knotsBaromVisibWave heightAir tempDewpointWater temp
2018-Feb-22 15:13N 34°33' E 138°14'410.7
2018-Feb-22 14:52N 34°33' E 138°18'510.7
2018-Feb-22 14:22N 34°33' E 138°25'1911.0
2018-Feb-22 12:41N 34°35' E 138°47'211.3
2018-Feb-22 12:29N 34°35' E 138°50'611.6
2018-Feb-22 11:59N 34°36' E 138°57'611.8
2018-Feb-22 11:28N 34°40' E 139°02'712.0
2018-Feb-22 10:52N 34°47' E 139°06'1510.4
2018-Feb-22 09:28N 34°57' E 139°18'510.6
2018-Feb-22 09:00N 34°60' E 139°24'510.7
2018-Feb-22 08:30N 35°02' E 139°29'611.2
2018-Feb-22 08:00N 35°05' E 139°35'611.9
2018-Feb-22 07:30N 35°07' E 139°42'611.5
2018-Feb-22 07:00N 35°12' E 139°46'510.9
2018-Feb-22 06:30N 35°17' E 139°45'510.8
2018-Feb-22 06:01N 35°22' E 139°42'510.5
2018-Feb-22 05:30N 35°27' E 139°40'2 3.0
2018-Feb-22 05:01N 35°29' E 139°40'0 0.0
2018-Feb-22 04:30N 35°29' E 139°40'0 0.0
2018-Feb-22 04:01N 35°29' E 139°40'0 0.0
2018-Feb-22 03:30N 35°29' E 139°40'0 0.0
2018-Feb-22 03:00N 35°29' E 139°40'0 0.0
2018-Feb-22 02:31N 35°29' E 139°40'0 0.0
2018-Feb-22 02:00N 35°29' E 139°40'0 0.0
2018-Feb-22 01:30N 35°29' E 139°40'0 0.0
2018-Feb-22 01:00N 35°29' E 139°40'0 0.0
2018-Feb-22 00:30N 35°29' E 139°40'0 0.0
2018-Feb-22 00:00N 35°29' E 139°40'0 0.0
2018-Feb-21 23:30N 35°29' E 139°40'0 0.0
2018-Feb-21 23:00N 35°29' E 139°40'3 5.8
2018-Feb-21 22:30N 35°27' E 139°42'3 5.9
2018-Feb-21 22:00N 35°24' E 139°44'0 0.5
2018-Feb-21 21:28N 35°24' E 139°44'0 0.0
2018-Feb-21 20:58N 35°24' E 139°44'0 0.1
2018-Feb-21 20:28N 35°24' E 139°44'0 0.1
2018-Feb-21 19:58N 35°24' E 139°44'0 0.0
2018-Feb-21 19:28N 35°24' E 139°44'0 0.0
2018-Feb-21 18:58N 35°24' E 139°44'0 0.0
2018-Feb-21 18:28N 35°24' E 139°44'0 0.0
2018-Feb-21 17:58N 35°24' E 139°44'0 0.0
2018-Feb-21 17:28N 35°24' E 139°44'0 0.0
2018-Feb-21 16:58N 35°24' E 139°44'0 0.0
2018-Feb-21 16:28N 35°24' E 139°44'0 0.0
2018-Feb-21 15:58N 35°24' E 139°44'0 0.0
2018-Feb-21 15:28N 35°24' E 139°44'0 0.0
2018-Feb-21 14:58N 35°24' E 139°44'0 0.0
2018-Feb-21 14:28N 35°24' E 139°44'0 0.0
2018-Feb-21 13:58N 35°24' E 139°44'0 0.0
2018-Feb-21 13:28N 35°24' E 139°44'0 0.0
2018-Feb-21 12:58N 35°24' E 139°44'0 0.1
2018-Feb-21 12:28N 35°24' E 139°44'0 0.0
2018-Feb-21 11:58N 35°24' E 139°44'0 0.2
2018-Feb-21 11:31N 35°24' E 139°44'510.2
2018-Feb-21 11:00N 35°28' E 139°48'611.2
2018-Feb-21 10:30N 35°33' E 139°50'3 5.1
2018-Feb-21 09:54N 35°35' E 139°46'0 0.0
2018-Feb-21 09:24N 35°35' E 139°46'0 0.0
2018-Feb-21 09:00N 35°35' E 139°46'0 0.0
2018-Feb-21 08:30N 35°35' E 139°46'0 0.0
2018-Feb-21 08:00N 35°35' E 139°46'0 0.0
2018-Feb-21 07:21N 35°35' E 139°46'0 0.0
2018-Feb-21 06:48N 35°35' E 139°46'0 0.0
2018-Feb-21 06:21N 35°35' E 139°46'0 0.0
2018-Feb-21 05:36N 35°35' E 139°46'0 0.0
2018-Feb-21 05:28N 35°35' E 139°46'0 0.1
2018-Feb-21 04:59N 35°35' E 139°46'3 6.8
2018-Feb-21 04:30N 35°33' E 139°50'5 9.5
2018-Feb-21 04:00N 35°29' E 139°51'510.5
2018-Feb-21 03:31N 35°25' E 139°47'510.2
2018-Feb-21 03:00N 35°20' E 139°45'5 9.3
2018-Feb-21 02:30N 35°16' E 139°47'5 9.9
2018-Feb-21 02:00N 35°11' E 139°46'610.9
2018-Feb-21 01:30N 35°06' E 139°44'510.4
2018-Feb-21 00:59N 35°02' E 139°39'5 9.9
2018-Feb-21 00:30N 34°59' E 139°34'8 9.9
2018-Feb-20 23:39N 34°54' E 139°26'3 9.7
2018-Feb-20 23:22N 34°52' E 139°24'3 9.5
2018-Feb-20 23:01N 34°50' E 139°21'6 9.7
2018-Feb-20 22:25N 34°46' E 139°15'8 9.3
2018-Feb-20 21:36N 34°41' E 139°09'1 8.9
2018-Feb-20 21:30N 34°40' E 139°08'7 9.4
2018-Feb-20 20:43N 34°37' E 138°60'310.1
2018-Feb-20 20:27N 34°36' E 138°57'510.3
2018-Feb-20 19:56N 34°34' E 138°51'410.0
2018-Feb-20 19:29N 34°34' E 138°45'610.8
2018-Feb-20 18:54N 34°33' E 138°38'611.0
2018-Feb-20 18:22N 34°32' E 138°31'191 4.3
2018-Feb-18 21:55N 33°47' E 134°47'512.8
2018-Feb-18 21:30N 33°51' E 134°50'712.6
2018-Feb-18 20:59N 33°57' E 134°49'612.7
2018-Feb-18 20:30N 34°03' E 134°46'812.9
2018-Feb-18 19:55N 34°10' E 134°42'614.0
2018-Feb-18 19:29N 34°15' E 134°39'612.5
2018-Feb-18 19:00N 34°18' E 134°32'612.6
2018-Feb-18 18:30N 34°20' E 134°25'712.8
2018-Feb-18 17:58N 34°23' E 134°17'713.8
2018-Feb-18 17:28N 34°25' E 134°10'8 0.4
2018-Feb-17 21:10N 34°23' E 134°19'511.1
2018-Feb-17 20:43N 34°21' E 134°25'311.0
2018-Feb-17 20:29N 34°20' E 134°28'611.0
2018-Feb-17 19:54N 34°17' E 134°35'410.5
2018-Feb-17 19:30N 34°15' E 134°39'5 9.3
2018-Feb-17 18:57N 34°10' E 134°41'510.1
2018-Feb-17 18:30N 34°06' E 134°43'510.0
2018-Feb-17 18:00N 34°01' E 134°45'5 9.8
2018-Feb-17 17:30N 33°57' E 134°48'6 9.3
2018-Feb-17 16:52N 33°51' E 134°50'2 0.1
2018-Feb-16 16:48N 33°49' E 134°50'412.9
2018-Feb-16 16:30N 33°53' E 134°52'612.8
2018-Feb-16 15:59N 33°59' E 134°53'612.3
2018-Feb-16 15:30N 34°05' E 134°56'612.7
2018-Feb-16 15:00N 34°11' E 134°57'612.8
2018-Feb-16 14:30N 34°17' E 134°59'612.1
2018-Feb-16 14:00N 34°23' E 135°01'612.4
2018-Feb-16 13:30N 34°27' E 135°07'612.1
2018-Feb-16 13:00N 34°29' E 135°14'612.2
2018-Feb-16 12:30N 34°32' E 135°21'4 7.7
2018-Feb-16 12:00N 34°32' E 135°25'0 0.1
2018-Feb-16 11:30N 34°32' E 135°25'0 0.0
2018-Feb-16 11:00N 34°32' E 135°25'0 0.0
2018-Feb-16 10:30N 34°32' E 135°25'0 0.0
2018-Feb-16 10:00N 34°32' E 135°25'0 0.0
2018-Feb-16 09:29N 34°32' E 135°25'0 0.0
2018-Feb-16 09:00N 34°32' E 135°25'0 0.0
2018-Feb-16 08:30N 34°32' E 135°25'0 0.0
2018-Feb-16 08:00N 34°32' E 135°25'1 1.4
2018-Feb-16 07:30N 34°31' E 135°25'4 7.2
2018-Feb-16 07:00N 34°32' E 135°20'0 0.1
2018-Feb-16 06:30N 34°32' E 135°20'0 0.1
2018-Feb-16 05:59N 34°32' E 135°20'0 0.0
2018-Feb-16 05:30N 34°32' E 135°20'0 0.0
2018-Feb-16 05:00N 34°32' E 135°20'0 0.0
2018-Feb-16 04:30N 34°32' E 135°20'0 0.0
2018-Feb-16 04:00N 34°32' E 135°20'0 0.0
2018-Feb-16 03:30N 34°32' E 135°20'1 1.8
2018-Feb-16 03:01N 34°32' E 135°21'0 0.9
2018-Feb-16 02:30N 34°32' E 135°21'611.4
2018-Feb-16 02:00N 34°29' E 135°15'611.7
2018-Feb-16 01:30N 34°25' E 135°10'611.6
2018-Feb-16 01:00N 34°20' E 135°05'611.6
2018-Feb-16 00:30N 34°15' E 135°03'611.8
2018-Feb-16 00:00N 34°09' E 135°02'611.7
2018-Feb-15 23:30N 34°03' E 135°02'611.4
2018-Feb-15 23:00N 33°57' E 135°02'160 9.2
2018-Feb-15 05:33N 34°34' E 138°11'1 8.9
2018-Feb-15 05:28N 34°34' E 138°12'26 9.4
2018-Feb-15 02:40N 34°35' E 138°44'3 9.9
2018-Feb-15 02:21N 34°35' E 138°48'3 9.4
2018-Feb-15 02:00N 34°35' E 138°52'4 8.1
2018-Feb-15 01:30N 34°36' E 138°56'6 8.8
2018-Feb-15 00:51N 34°40' E 139°01'3 9.4
2018-Feb-15 00:29N 34°43' E 139°03'5 9.8
2018-Feb-14 23:59N 34°47' E 139°07'7 9.5
2018-Feb-14 23:16N 34°51' E 139°13'3 8.8
2018-Feb-14 22:57N 34°53' E 139°16'6 9.1
2018-Feb-14 22:15N 34°57' E 139°22'2 7.6
2018-Feb-14 22:00N 34°58' E 139°24'4 8.1
2018-Feb-14 21:30N 35°00' E 139°28'4 8.7
2018-Feb-14 21:00N 35°03' E 139°32'5 9.1
2018-Feb-14 20:26N 35°06' E 139°38'4 8.7
2018-Feb-14 20:00N 35°07' E 139°42'4 8.6
2018-Feb-14 19:30N 35°11' E 139°45'4 8.9
2018-Feb-14 19:00N 35°15' E 139°46'510.5
2018-Feb-14 18:30N 35°19' E 139°43'510.7
2018-Feb-14 18:00N 35°25' E 139°43'5 9.1
2018-Feb-14 17:30N 35°29' E 139°43'0 0.7
2018-Feb-14 17:00N 35°30' E 139°43'0 0.0
2018-Feb-14 16:30N 35°30' E 139°43'0 0.0
2018-Feb-14 16:00N 35°30' E 139°43'0 0.0
2018-Feb-14 15:30N 35°30' E 139°43'0 0.0
2018-Feb-14 15:00N 35°30' E 139°43'0 0.0
2018-Feb-14 14:30N 35°30' E 139°43'0 0.0
2018-Feb-14 14:00N 35°30' E 139°43'0 0.0
2018-Feb-14 13:30N 35°30' E 139°43'0 0.0
2018-Feb-14 13:00N 35°30' E 139°43'0 0.0
2018-Feb-14 12:30N 35°30' E 139°43'0 0.0
2018-Feb-14 12:00N 35°30' E 139°43'0 0.0
2018-Feb-14 11:30N 35°30' E 139°43'0 0.0
2018-Feb-14 11:00N 35°30' E 139°43'0 0.0
2018-Feb-14 10:30N 35°30' E 139°43'0 0.0
2018-Feb-14 10:00N 35°30' E 139°43'0 0.0
2018-Feb-14 09:27N 35°30' E 139°43'0 0.0
2018-Feb-14 09:00N 35°30' E 139°43'0 0.0
2018-Feb-14 08:30N 35°30' E 139°43'0 0.0
2018-Feb-14 08:00N 35°30' E 139°43'0 0.0
2018-Feb-14 07:30N 35°30' E 139°43'0 0.0
2018-Feb-14 07:00N 35°30' E 139°43'0 0.0
2018-Feb-14 06:30N 35°30' E 139°43'0 0.0
2018-Feb-14 06:00N 35°30' E 139°43'0 0.0
2018-Feb-14 05:30N 35°30' E 139°43'1 1.1
2018-Feb-14 05:00N 35°30' E 139°44'510.3
2018-Feb-14 04:30N 35°31' E 139°50'4 8.7
2018-Feb-14 04:00N 35°35' E 139°46'0 0.0
2018-Feb-14 03:26N 35°35' E 139°46'0 0.0
2018-Feb-14 02:59N 35°35' E 139°46'0 0.0
2018-Feb-14 02:23N 35°35' E 139°46'0 0.0
2018-Feb-14 01:59N 35°35' E 139°46'0 0.0
2018-Feb-14 01:29N 35°35' E 139°46'0 0.0
2018-Feb-13 23:47N 35°35' E 139°46'0 0.0
2018-Feb-13 23:30N 35°35' E 139°46'0 0.0
2018-Feb-13 22:05N 35°35' E 139°46'0 0.0
2018-Feb-13 21:59N 35°35' E 139°46'1 1.7
2018-Feb-13 21:30N 35°35' E 139°47'3 7.0
2018-Feb-13 21:00N 35°34' E 139°51'0 0.0
2018-Feb-13 20:27N 35°34' E 139°51'0 0.1
2018-Feb-13 20:00N 35°34' E 139°51'0 0.1
2018-Feb-13 19:27N 35°34' E 139°51'0 0.0
2018-Feb-13 19:01N 35°34' E 139°51'0 0.0
2018-Feb-13 18:27N 35°34' E 139°51'0 0.0
2018-Feb-13 18:00N 35°34' E 139°51'0 0.0
2018-Feb-13 17:30N 35°34' E 139°51'0 0.0
2018-Feb-13 17:00N 35°34' E 139°51'0 0.0
2018-Feb-13 16:27N 35°34' E 139°51'0 0.0
2018-Feb-13 16:00N 35°34' E 139°51'0 0.0
2018-Feb-13 15:03N 35°34' E 139°51'0 0.2
2018-Feb-13 15:00N 35°34' E 139°51'4 7.5
2018-Feb-13 14:30N 35°30' E 139°52'510.8
2018-Feb-13 14:00N 35°26' E 139°48'611.2
2018-Feb-13 13:30N 35°21' E 139°45'510.3
2018-Feb-13 13:00N 35°16' E 139°46'510.3
2018-Feb-13 12:28N 35°10' E 139°47'510.8
2018-Feb-13 12:00N 35°06' E 139°45'11 9.0
2018-Feb-13 10:47N 34°54' E 139°46'13 7.9
2018-Feb-13 09:10N 34°56' E 140°02'4 9.7
2018-Feb-13 08:48N 34°58' E 140°05'  
Track history (hours):
 
Tides and Currents Weather Stations Pressure Air Temp Water Temp Dewpoint Dewpoint Depression Visibility Wind Speed Wind Dir Waves Ship Positions

Shinpuku Maru

Last reported at 2018-Feb-22 15:13 UTC. Time now 2018-Feb-22 18:39 UTC.
Position N 34°33' E 138°14'.

Length 79 m; draft 5.3 m.

Type: Cargo ship. MMSI: 431500572.

Date/timePositionNaut miles runAvg speedWind from/ knotsBaromVisibWave heightAir tempDewpointWater temp
2018-Feb-22 15:13N 34°33' E 138°14'410.7
2018-Feb-22 14:52N 34°33' E 138°18'510.7
2018-Feb-22 14:22N 34°33' E 138°25'1911.0
2018-Feb-22 12:41N 34°35' E 138°47'211.3
2018-Feb-22 12:29N 34°35' E 138°50'611.6
2018-Feb-22 11:59N 34°36' E 138°57'611.8
2018-Feb-22 11:28N 34°40' E 139°02'712.0
2018-Feb-22 10:52N 34°47' E 139°06'1510.4
2018-Feb-22 09:28N 34°57' E 139°18'510.6
2018-Feb-22 09:00N 34°60' E 139°24'510.7
2018-Feb-22 08:30N 35°02' E 139°29'611.2
2018-Feb-22 08:00N 35°05' E 139°35'611.9
2018-Feb-22 07:30N 35°07' E 139°42'611.5
2018-Feb-22 07:00N 35°12' E 139°46'510.9
2018-Feb-22 06:30N 35°17' E 139°45'510.8
2018-Feb-22 06:01N 35°22' E 139°42'510.5
2018-Feb-22 05:30N 35°27' E 139°40'2 3.0
2018-Feb-22 05:01N 35°29' E 139°40'0 0.0
2018-Feb-22 04:30N 35°29' E 139°40'0 0.0
2018-Feb-22 04:01N 35°29' E 139°40'0 0.0
2018-Feb-22 03:30N 35°29' E 139°40'0 0.0
2018-Feb-22 03:00N 35°29' E 139°40'0 0.0
2018-Feb-22 02:31N 35°29' E 139°40'0 0.0
2018-Feb-22 02:00N 35°29' E 139°40'0 0.0
2018-Feb-22 01:30N 35°29' E 139°40'0 0.0
2018-Feb-22 01:00N 35°29' E 139°40'0 0.0
2018-Feb-22 00:30N 35°29' E 139°40'0 0.0
2018-Feb-22 00:00N 35°29' E 139°40'0 0.0
2018-Feb-21 23:30N 35°29' E 139°40'0 0.0
2018-Feb-21 23:00N 35°29' E 139°40'3 5.8
2018-Feb-21 22:30N 35°27' E 139°42'3 5.9
2018-Feb-21 22:00N 35°24' E 139°44'0 0.5
2018-Feb-21 21:28N 35°24' E 139°44'0 0.0
2018-Feb-21 20:58N 35°24' E 139°44'0 0.1
2018-Feb-21 20:28N 35°24' E 139°44'0 0.1
2018-Feb-21 19:58N 35°24' E 139°44'0 0.0
2018-Feb-21 19:28N 35°24' E 139°44'0 0.0
2018-Feb-21 18:58N 35°24' E 139°44'0 0.0
2018-Feb-21 18:28N 35°24' E 139°44'0 0.0
2018-Feb-21 17:58N 35°24' E 139°44'0 0.0
2018-Feb-21 17:28N 35°24' E 139°44'0 0.0
2018-Feb-21 16:58N 35°24' E 139°44'0 0.0
2018-Feb-21 16:28N 35°24' E 139°44'0 0.0
2018-Feb-21 15:58N 35°24' E 139°44'0 0.0
2018-Feb-21 15:28N 35°24' E 139°44'0 0.0
2018-Feb-21 14:58N 35°24' E 139°44'0 0.0
2018-Feb-21 14:28N 35°24' E 139°44'0 0.0
2018-Feb-21 13:58N 35°24' E 139°44'0 0.0
2018-Feb-21 13:28N 35°24' E 139°44'0 0.0
2018-Feb-21 12:58N 35°24' E 139°44'0 0.1
2018-Feb-21 12:28N 35°24' E 139°44'0 0.0
2018-Feb-21 11:58N 35°24' E 139°44'0 0.2
2018-Feb-21 11:31N 35°24' E 139°44'510.2
2018-Feb-21 11:00N 35°28' E 139°48'611.2
2018-Feb-21 10:30N 35°33' E 139°50'3 5.1
2018-Feb-21 09:54N 35°35' E 139°46'0 0.0
2018-Feb-21 09:24N 35°35' E 139°46'0 0.0
2018-Feb-21 09:00N 35°35' E 139°46'0 0.0
2018-Feb-21 08:30N 35°35' E 139°46'0 0.0
2018-Feb-21 08:00N 35°35' E 139°46'0 0.0
2018-Feb-21 07:21N 35°35' E 139°46'0 0.0
2018-Feb-21 06:48N 35°35' E 139°46'0 0.0
2018-Feb-21 06:21N 35°35' E 139°46'0 0.0
2018-Feb-21 05:36N 35°35' E 139°46'0 0.0
2018-Feb-21 05:28N 35°35' E 139°46'0 0.1
2018-Feb-21 04:59N 35°35' E 139°46'3 6.8
2018-Feb-21 04:30N 35°33' E 139°50'5 9.5
2018-Feb-21 04:00N 35°29' E 139°51'510.5
2018-Feb-21 03:31N 35°25' E 139°47'510.2
2018-Feb-21 03:00N 35°20' E 139°45'5 9.3
2018-Feb-21 02:30N 35°16' E 139°47'5 9.9
2018-Feb-21 02:00N 35°11' E 139°46'610.9
2018-Feb-21 01:30N 35°06' E 139°44'510.4
2018-Feb-21 00:59N 35°02' E 139°39'5 9.9
2018-Feb-21 00:30N 34°59' E 139°34'8 9.9
2018-Feb-20 23:39N 34°54' E 139°26'3 9.7
2018-Feb-20 23:22N 34°52' E 139°24'3 9.5
2018-Feb-20 23:01N 34°50' E 139°21'6 9.7
2018-Feb-20 22:25N 34°46' E 139°15'8 9.3
2018-Feb-20 21:36N 34°41' E 139°09'1 8.9
2018-Feb-20 21:30N 34°40' E 139°08'7 9.4
2018-Feb-20 20:43N 34°37' E 138°60'310.1
2018-Feb-20 20:27N 34°36' E 138°57'510.3
2018-Feb-20 19:56N 34°34' E 138°51'410.0
2018-Feb-20 19:29N 34°34' E 138°45'610.8
2018-Feb-20 18:54N 34°33' E 138°38'611.0
2018-Feb-20 18:22N 34°32' E 138°31'191 4.3
2018-Feb-18 21:55N 33°47' E 134°47'512.8
2018-Feb-18 21:30N 33°51' E 134°50'712.6
2018-Feb-18 20:59N 33°57' E 134°49'612.7
2018-Feb-18 20:30N 34°03' E 134°46'812.9
2018-Feb-18 19:55N 34°10' E 134°42'614.0
2018-Feb-18 19:29N 34°15' E 134°39'612.5
2018-Feb-18 19:00N 34°18' E 134°32'612.6
2018-Feb-18 18:30N 34°20' E 134°25'712.8
2018-Feb-18 17:58N 34°23' E 134°17'713.8
2018-Feb-18 17:28N 34°25' E 134°10'8 0.4
2018-Feb-17 21:10N 34°23' E 134°19'511.1
2018-Feb-17 20:43N 34°21' E 134°25'311.0
2018-Feb-17 20:29N 34°20' E 134°28'611.0
2018-Feb-17 19:54N 34°17' E 134°35'410.5
2018-Feb-17 19:30N 34°15' E 134°39'5 9.3
2018-Feb-17 18:57N 34°10' E 134°41'510.1
2018-Feb-17 18:30N 34°06' E 134°43'510.0
2018-Feb-17 18:00N 34°01' E 134°45'5 9.8
2018-Feb-17 17:30N 33°57' E 134°48'6 9.3
2018-Feb-17 16:52N 33°51' E 134°50'2 0.1
2018-Feb-16 16:48N 33°49' E 134°50'412.9
2018-Feb-16 16:30N 33°53' E 134°52'612.8
2018-Feb-16 15:59N 33°59' E 134°53'612.3
2018-Feb-16 15:30N 34°05' E 134°56'612.7
2018-Feb-16 15:00N 34°11' E 134°57'612.8
2018-Feb-16 14:30N 34°17' E 134°59'612.1
2018-Feb-16 14:00N 34°23' E 135°01'612.4
2018-Feb-16 13:30N 34°27' E 135°07'612.1
2018-Feb-16 13:00N 34°29' E 135°14'612.2
2018-Feb-16 12:30N 34°32' E 135°21'4 7.7
2018-Feb-16 12:00N 34°32' E 135°25'0 0.1
2018-Feb-16 11:30N 34°32' E 135°25'0 0.0
2018-Feb-16 11:00N 34°32' E 135°25'0 0.0
2018-Feb-16 10:30N 34°32' E 135°25'0 0.0
2018-Feb-16 10:00N 34°32' E 135°25'0 0.0
2018-Feb-16 09:29N 34°32' E 135°25'0 0.0
2018-Feb-16 09:00N 34°32' E 135°25'0 0.0
2018-Feb-16 08:30N 34°32' E 135°25'0 0.0
2018-Feb-16 08:00N 34°32' E 135°25'1 1.4
2018-Feb-16 07:30N 34°31' E 135°25'4 7.2
2018-Feb-16 07:00N 34°32' E 135°20'0 0.1
2018-Feb-16 06:30N 34°32' E 135°20'0 0.1
2018-Feb-16 05:59N 34°32' E 135°20'0 0.0
2018-Feb-16 05:30N 34°32' E 135°20'0 0.0
2018-Feb-16 05:00N 34°32' E 135°20'0 0.0
2018-Feb-16 04:30N 34°32' E 135°20'0 0.0
2018-Feb-16 04:00N 34°32' E 135°20'0 0.0
2018-Feb-16 03:30N 34°32' E 135°20'1 1.8
2018-Feb-16 03:01N 34°32' E 135°21'0 0.9
2018-Feb-16 02:30N 34°32' E 135°21'611.4
2018-Feb-16 02:00N 34°29' E 135°15'611.7
2018-Feb-16 01:30N 34°25' E 135°10'611.6
2018-Feb-16 01:00N 34°20' E 135°05'611.6
2018-Feb-16 00:30N 34°15' E 135°03'611.8
2018-Feb-16 00:00N 34°09' E 135°02'611.7
2018-Feb-15 23:30N 34°03' E 135°02'611.4
2018-Feb-15 23:00N 33°57' E 135°02'160 9.2
2018-Feb-15 05:33N 34°34' E 138°11'1 8.9
2018-Feb-15 05:28N 34°34' E 138°12'26 9.4
2018-Feb-15 02:40N 34°35' E 138°44'3 9.9
2018-Feb-15 02:21N 34°35' E 138°48'3 9.4
2018-Feb-15 02:00N 34°35' E 138°52'4 8.1
2018-Feb-15 01:30N 34°36' E 138°56'6 8.8
2018-Feb-15 00:51N 34°40' E 139°01'3 9.4
2018-Feb-15 00:29N 34°43' E 139°03'5 9.8
2018-Feb-14 23:59N 34°47' E 139°07'7 9.5
2018-Feb-14 23:16N 34°51' E 139°13'3 8.8
2018-Feb-14 22:57N 34°53' E 139°16'6 9.1
2018-Feb-14 22:15N 34°57' E 139°22'2 7.6
2018-Feb-14 22:00N 34°58' E 139°24'4 8.1
2018-Feb-14 21:30N 35°00' E 139°28'4 8.7
2018-Feb-14 21:00N 35°03' E 139°32'5 9.1
2018-Feb-14 20:26N 35°06' E 139°38'4 8.7
2018-Feb-14 20:00N 35°07' E 139°42'4 8.6
2018-Feb-14 19:30N 35°11' E 139°45'4 8.9
2018-Feb-14 19:00N 35°15' E 139°46'510.5
2018-Feb-14 18:30N 35°19' E 139°43'510.7
2018-Feb-14 18:00N 35°25' E 139°43'5 9.1
2018-Feb-14 17:30N 35°29' E 139°43'0 0.7
2018-Feb-14 17:00N 35°30' E 139°43'0 0.0
2018-Feb-14 16:30N 35°30' E 139°43'0 0.0
2018-Feb-14 16:00N 35°30' E 139°43'0 0.0
2018-Feb-14 15:30N 35°30' E 139°43'0 0.0
2018-Feb-14 15:00N 35°30' E 139°43'0 0.0
2018-Feb-14 14:30N 35°30' E 139°43'0 0.0
2018-Feb-14 14:00N 35°30' E 139°43'0 0.0
2018-Feb-14 13:30N 35°30' E 139°43'0 0.0
2018-Feb-14 13:00N 35°30' E 139°43'0 0.0
2018-Feb-14 12:30N 35°30' E 139°43'0 0.0
2018-Feb-14 12:00N 35°30' E 139°43'0 0.0
2018-Feb-14 11:30N 35°30' E 139°43'0 0.0
2018-Feb-14 11:00N 35°30' E 139°43'0 0.0
2018-Feb-14 10:30N 35°30' E 139°43'0 0.0
2018-Feb-14 10:00N 35°30' E 139°43'0 0.0
2018-Feb-14 09:27N 35°30' E 139°43'0 0.0
2018-Feb-14 09:00N 35°30' E 139°43'0 0.0
2018-Feb-14 08:30N 35°30' E 139°43'0 0.0
2018-Feb-14 08:00N 35°30' E 139°43'0 0.0
2018-Feb-14 07:30N 35°30' E 139°43'0 0.0
2018-Feb-14 07:00N 35°30' E 139°43'0 0.0
2018-Feb-14 06:30N 35°30' E 139°43'0 0.0
2018-Feb-14 06:00N 35°30' E 139°43'0 0.0
2018-Feb-14 05:30N 35°30' E 139°43'1 1.1
2018-Feb-14 05:00N 35°30' E 139°44'510.3
2018-Feb-14 04:30N 35°31' E 139°50'4 8.7
2018-Feb-14 04:00N 35°35' E 139°46'0 0.0
2018-Feb-14 03:26N 35°35' E 139°46'0 0.0
2018-Feb-14 02:59N 35°35' E 139°46'0 0.0
2018-Feb-14 02:23N 35°35' E 139°46'0 0.0
2018-Feb-14 01:59N 35°35' E 139°46'0 0.0
2018-Feb-14 01:29N 35°35' E 139°46'0 0.0
2018-Feb-13 23:47N 35°35' E 139°46'0 0.0
2018-Feb-13 23:30N 35°35' E 139°46'0 0.0
2018-Feb-13 22:05N 35°35' E 139°46'0 0.0
2018-Feb-13 21:59N 35°35' E 139°46'1 1.7
2018-Feb-13 21:30N 35°35' E 139°47'3 7.0
2018-Feb-13 21:00N 35°34' E 139°51'0 0.0
2018-Feb-13 20:27N 35°34' E 139°51'0 0.1
2018-Feb-13 20:00N 35°34' E 139°51'0 0.1
2018-Feb-13 19:27N 35°34' E 139°51'0 0.0
2018-Feb-13 19:01N 35°34' E 139°51'0 0.0
2018-Feb-13 18:27N 35°34' E 139°51'0 0.0
2018-Feb-13 18:00N 35°34' E 139°51'0 0.0
2018-Feb-13 17:30N 35°34' E 139°51'0 0.0
2018-Feb-13 17:00N 35°34' E 139°51'0 0.0
2018-Feb-13 16:27N 35°34' E 139°51'0 0.0
2018-Feb-13 16:00N 35°34' E 139°51'0 0.0
2018-Feb-13 15:03N 35°34' E 139°51'0 0.2
2018-Feb-13 15:00N 35°34' E 139°51'4 7.5
2018-Feb-13 14:30N 35°30' E 139°52'510.8
2018-Feb-13 14:00N 35°26' E 139°48'611.2
2018-Feb-13 13:30N 35°21' E 139°45'510.3
2018-Feb-13 13:00N 35°16' E 139°46'510.3
2018-Feb-13 12:28N 35°10' E 139°47'510.8
2018-Feb-13 12:00N 35°06' E 139°45'11 9.0
2018-Feb-13 10:47N 34°54' E 139°46'13 7.9
2018-Feb-13 09:10N 34°56' E 140°02'4 9.7
2018-Feb-13 08:48N 34°58' E 140°05'  

Dump ship's entire track history